Marathon, FL

5:14 AM EDT on May 29, 2015 (GMT -0400)
Key Colony Beach FL | | Change Station
CLOSE
Current Station
Personal Weather Station
Location: Marathon, FL
Elevation: 10 ft
Nearby Weather Stations

Elev 10 ft 24.72 °N, 81.02 °W | Updated 3 minutes ago

Partly Cloudy
Partly Cloudy
78.6 °F
Feels Like 82 °F
N
7.0
Wind Variable Wind from NE
Gusts 8.0 mph

Today
High -- | Low -- °F
--% Chance of Precip.
Yesterday
High -- | Low -- °F
Precip. -- in
6:35 AM 8:07 PM
Waxing Gibbous, 82% visible
Pressure 30.00 in
Visibility 10.0 miles
Clouds Scattered Clouds 3300 ft
Mostly Cloudy 4900 ft
Mostly Cloudy 7000 ft
Heat Index 82 °F
Dew Point 79 °F
Humidity 100%
Rainfall 0.00 in
Snow Depth Not available.
UV 0 out of 12
Pollen 4.20 out of 12
Air Quality Not available.
Flu Activity Sporadic
METAR KNQX 290853Z AUTO 05009KT 10SM SCT033 BKN049 BKN070 26/19 A3000 RMK AO2 SLP158 T02560194 56006

More Conditions Fewer Conditions

Pressure 30.00 in
Visibility 10.0 miles
Clouds Scattered Clouds 3300 ft
Mostly Cloudy 4900 ft
Mostly Cloudy 7000 ft
Heat Index 82 °F
Dew Point 79 °F
Humidity 100%
Rainfall 0.00 in
Snow Depth Not available.
UV 0 out of 12
Pollen 4.20 out of 12
Air Quality Not available.
Flu Activity Sporadic
METAR KNQX 290853Z AUTO 05009KT 10SM SCT033 BKN049 BKN070 26/19 A3000 RMK AO2 SLP158 T02560194 56006

More Conditions Fewer Conditions

Nowcast | as of 3:42 am EDT on May 29, 2015

Through 500 am...isolated showers with light rain will affect the coastal waters surrounding the Lower and Middle Keys...with a few extending into The Straits. Movement of the activity will be toward the west southwest near 15 knots. A few locations in the Lower Keys will see brief light showers with only a few hundredths of an inch expected early this morning.

×

10-Day Weather Forecast

Almanac

Astronomy

May. 29, 2015 Rise Set
Actual Time
Civil Twilight
Nautical Twilight
Astronomical Twilight
Moon
Length of Visible Light
Length of Day
Tomorrow will be .
, % of the Moon is Illuminated

Today's Extremes

State Highs State Lows

Community

WunderPhotos

Upload Photos

1,825,221 photos uploaded!

WunderBlogs® & News

Nearby

Air Quality

  Air Quality AQ Index Pollutant
Not available.

Snow Depth

Station Depth Elevation

Earthquake Activity

City Distance Mag. Time & Date
Minimum magnitude displayed is 2.5.

Coastal Water Temperatures

Place Temperature

Stations

Nearby Weather Stations

Station Location Temp. Windchill Dew Point Humidity Wind Precip. Elev Updated Type